Globe Explorer — 3EIQ7 — position and weather

sailwx.info

Track history (hours):
 
Tides and Currents Weather Stations Pressure Air Temp Water Temp Dewpoint Dewpoint Depression Visibility Wind Speed Wind Dir Waves Ship Positions

Globe Explorer

Last reported at 2017-Oct-31 06:22 UTC. Time now 2017-Nov-21 21:22 UTC.
Position N 01°15' E 103°24'.
Warning: this ship's position is 21 days out of date.

Length 169 m; draft 9.6 m.

Type: Cargo ship. MMSI: 357400000.

Date/timePositionNaut miles runAvg speedWind from/ knotsBaromVisibWave heightAir tempDewpointWater temp
2017-Oct-31 06:22N 01°15' E 103°24'514.9
2017-Oct-31 06:00N 01°13' E 103°29'714.2
2017-Oct-31 05:31N 01°11' E 103°36'612.9
2017-Oct-31 05:01N 01°09' E 103°42'510.9
2017-Oct-31 04:30N 01°10' E 103°48'510.3
2017-Oct-31 04:00N 01°13' E 103°52'2 4.6
2017-Oct-31 03:30N 01°15' E 103°53'0 0.0
2017-Oct-31 02:58N 01°15' E 103°53'0 0.0
2017-Oct-31 02:25N 01°15' E 103°53'0 0.0
2017-Oct-31 01:58N 01°15' E 103°53'0 0.0
2017-Oct-31 01:19N 01°15' E 103°53'0 0.0
2017-Oct-31 00:58N 01°15' E 103°53'0 0.0
2017-Oct-31 00:28N 01°15' E 103°53'0 0.0
2017-Oct-30 23:55N 01°15' E 103°53'0 0.0
2017-Oct-30 23:28N 01°15' E 103°53'0 0.0
2017-Oct-30 22:58N 01°15' E 103°53'0 0.0
2017-Oct-30 22:19N 01°15' E 103°53'0 0.2
2017-Oct-30 21:58N 01°15' E 103°53'0 0.1
2017-Oct-30 21:25N 01°15' E 103°53'0 0.0
2017-Oct-30 20:49N 01°15' E 103°53'0 0.0
2017-Oct-30 20:25N 01°15' E 103°53'0 0.0
2017-Oct-30 19:55N 01°15' E 103°53'0 0.0
2017-Oct-30 19:22N 01°15' E 103°53'0 0.1
2017-Oct-30 18:52N 01°15' E 103°53'0 0.1
2017-Oct-30 18:25N 01°15' E 103°53'0 0.1
2017-Oct-30 17:55N 01°15' E 103°53'0 0.1
2017-Oct-30 17:25N 01°15' E 103°53'0 0.0
2017-Oct-30 16:55N 01°15' E 103°53'0 0.0
2017-Oct-30 16:25N 01°15' E 103°53'0 0.0
2017-Oct-30 15:55N 01°15' E 103°53'0 0.0
2017-Oct-30 15:25N 01°15' E 103°53'0 0.0
2017-Oct-30 14:58N 01°15' E 103°53'0 0.0
2017-Oct-30 14:28N 01°15' E 103°53'0 0.0
2017-Oct-30 13:28N 01°15' E 103°53'0 0.1
2017-Oct-30 12:55N 01°15' E 103°53'0 0.1
2017-Oct-30 12:25N 01°15' E 103°53'0 0.1
2017-Oct-30 11:58N 01°15' E 103°53'0 0.1
2017-Oct-30 11:28N 01°15' E 103°53'0 0.2
2017-Oct-30 10:58N 01°15' E 103°53'0 0.1
2017-Oct-30 10:31N 01°15' E 103°53'1 2.7
2017-Oct-30 10:00N 01°14' E 103°54'5 9.3
2017-Oct-30 09:30N 01°15' E 103°58'  
2017-Oct-23 15:28N 30°59' E 122°30'6 6.6
2017-Oct-23 14:29N 31°06' E 122°30'4 7.5
2017-Oct-23 14:00N 31°06' E 122°26'4 7.7
2017-Oct-23 13:30N 31°06' E 122°21'510.4
2017-Oct-23 13:00N 31°08' E 122°16'714.2
2017-Oct-23 12:30N 31°12' E 122°09'714.7
2017-Oct-23 12:00N 31°15' E 122°01'815.1
2017-Oct-23 11:30N 31°16' E 121°52'714.5
2017-Oct-23 11:00N 31°19' E 121°44'612.4
2017-Oct-23 10:30N 31°22' E 121°38'611.4
2017-Oct-23 10:00N 31°25' E 121°32'510.6
2017-Oct-23 09:30N 31°28' E 121°27'612.4
2017-Oct-23 09:00N 31°32' E 121°22'613.0
2017-Oct-23 08:30N 31°37' E 121°17'612.8
2017-Oct-23 08:00N 31°41' E 121°11'611.7
2017-Oct-23 07:29N 31°45' E 121°05'3210.4
2017-Oct-23 04:23N 32°01' E 120°33'513.1
2017-Oct-23 04:00N 32°02' E 120°27'  
Track history (hours):
 
Tides and Currents Weather Stations Pressure Air Temp Water Temp Dewpoint Dewpoint Depression Visibility Wind Speed Wind Dir Waves Ship Positions

Globe Explorer

Last reported at 2017-Oct-31 06:22 UTC. Time now 2017-Nov-21 21:22 UTC.
Position N 01°15' E 103°24'.
Warning: this ship's position is 21 days out of date.

Length 169 m; draft 9.6 m.

Type: Cargo ship. MMSI: 357400000.

Date/timePositionNaut miles runAvg speedWind from/ knotsBaromVisibWave heightAir tempDewpointWater temp
2017-Oct-31 06:22N 01°15' E 103°24'514.9
2017-Oct-31 06:00N 01°13' E 103°29'714.2
2017-Oct-31 05:31N 01°11' E 103°36'612.9
2017-Oct-31 05:01N 01°09' E 103°42'510.9
2017-Oct-31 04:30N 01°10' E 103°48'510.3
2017-Oct-31 04:00N 01°13' E 103°52'2 4.6
2017-Oct-31 03:30N 01°15' E 103°53'0 0.0
2017-Oct-31 02:58N 01°15' E 103°53'0 0.0
2017-Oct-31 02:25N 01°15' E 103°53'0 0.0
2017-Oct-31 01:58N 01°15' E 103°53'0 0.0
2017-Oct-31 01:19N 01°15' E 103°53'0 0.0
2017-Oct-31 00:58N 01°15' E 103°53'0 0.0
2017-Oct-31 00:28N 01°15' E 103°53'0 0.0
2017-Oct-30 23:55N 01°15' E 103°53'0 0.0
2017-Oct-30 23:28N 01°15' E 103°53'0 0.0
2017-Oct-30 22:58N 01°15' E 103°53'0 0.0
2017-Oct-30 22:19N 01°15' E 103°53'0 0.2
2017-Oct-30 21:58N 01°15' E 103°53'0 0.1
2017-Oct-30 21:25N 01°15' E 103°53'0 0.0
2017-Oct-30 20:49N 01°15' E 103°53'0 0.0
2017-Oct-30 20:25N 01°15' E 103°53'0 0.0
2017-Oct-30 19:55N 01°15' E 103°53'0 0.0
2017-Oct-30 19:22N 01°15' E 103°53'0 0.1
2017-Oct-30 18:52N 01°15' E 103°53'0 0.1
2017-Oct-30 18:25N 01°15' E 103°53'0 0.1
2017-Oct-30 17:55N 01°15' E 103°53'0 0.1
2017-Oct-30 17:25N 01°15' E 103°53'0 0.0
2017-Oct-30 16:55N 01°15' E 103°53'0 0.0
2017-Oct-30 16:25N 01°15' E 103°53'0 0.0
2017-Oct-30 15:55N 01°15' E 103°53'0 0.0
2017-Oct-30 15:25N 01°15' E 103°53'0 0.0
2017-Oct-30 14:58N 01°15' E 103°53'0 0.0
2017-Oct-30 14:28N 01°15' E 103°53'0 0.0
2017-Oct-30 13:28N 01°15' E 103°53'0 0.1
2017-Oct-30 12:55N 01°15' E 103°53'0 0.1
2017-Oct-30 12:25N 01°15' E 103°53'0 0.1
2017-Oct-30 11:58N 01°15' E 103°53'0 0.1
2017-Oct-30 11:28N 01°15' E 103°53'0 0.2
2017-Oct-30 10:58N 01°15' E 103°53'0 0.1
2017-Oct-30 10:31N 01°15' E 103°53'1 2.7
2017-Oct-30 10:00N 01°14' E 103°54'5 9.3
2017-Oct-30 09:30N 01°15' E 103°58'  
2017-Oct-23 15:28N 30°59' E 122°30'6 6.6
2017-Oct-23 14:29N 31°06' E 122°30'4 7.5
2017-Oct-23 14:00N 31°06' E 122°26'4 7.7
2017-Oct-23 13:30N 31°06' E 122°21'510.4
2017-Oct-23 13:00N 31°08' E 122°16'714.2
2017-Oct-23 12:30N 31°12' E 122°09'714.7
2017-Oct-23 12:00N 31°15' E 122°01'815.1
2017-Oct-23 11:30N 31°16' E 121°52'714.5
2017-Oct-23 11:00N 31°19' E 121°44'612.4
2017-Oct-23 10:30N 31°22' E 121°38'611.4
2017-Oct-23 10:00N 31°25' E 121°32'510.6
2017-Oct-23 09:30N 31°28' E 121°27'612.4
2017-Oct-23 09:00N 31°32' E 121°22'613.0
2017-Oct-23 08:30N 31°37' E 121°17'612.8
2017-Oct-23 08:00N 31°41' E 121°11'611.7
2017-Oct-23 07:29N 31°45' E 121°05'3210.4
2017-Oct-23 04:23N 32°01' E 120°33'513.1
2017-Oct-23 04:00N 32°02' E 120°27'  

Dump ship's entire track history